Time;durP1;ratioP1;P1;durP2;ratioP2;P2;SDS_P1;SDS_P2;PMS_P1;PMS_P2;Temp;Humidity;BMP_temperature;BMP_pressure;BME280_temperature;BME280_humidity;BME280_pressure;Samples;Min_cycle;Max_cycle;Signal;HPM_P1;HPM_P2
2023/02/02 00:02:02;;;;;;;4.50;2.60;;;;;;;5.04;62.51;96732.44;5028544;28;20195;-68
2023/02/02 00:04:30;;;;;;;4.80;3.07;;;;;;;5.10;62.74;96731.44;5029810;28;20245;-67
2023/02/02 00:06:56;;;;;;;7.00;2.80;;;;;;;5.17;62.81;96725.25;5029634;28;20167;-67
2023/02/02 00:09:22;;;;;;;6.70;3.13;;;;;;;5.22;62.32;96732.97;5029343;28;20461;-67
2023/02/02 00:11:49;;;;;;;6.43;2.97;;;;;;;5.18;62.59;96727.00;5029335;28;20422;-68
2023/02/02 00:14:16;;;;;;;6.33;2.97;;;;;;;5.21;62.57;96721.72;5029482;28;20410;-68
2023/02/02 00:16:47;;;;;;;7.60;3.37;;;;;;;5.10;62.94;96726.25;5028922;28;20418;-67
2023/02/02 00:19:21;;;;;;;3.73;2.50;;;;;;;5.03;62.61;96727.25;5028844;28;20398;-67
2023/02/02 00:21:47;;;;;;;7.90;3.03;;;;;;;5.09;62.61;96724.56;5028537;28;20790;-67
2023/02/02 00:24:16;;;;;;;9.27;3.20;;;;;;;5.04;62.99;96718.56;5009641;28;21103;-69
2023/02/02 00:26:43;;;;;;;5.60;2.93;;;;;;;5.09;63.12;96727.16;5008880;28;20411;-67
2023/02/02 00:29:14;;;;;;;5.37;2.80;;;;;;;5.13;62.49;96715.81;5009744;28;20457;-65
2023/02/02 00:31:39;;;;;;;4.53;3.20;;;;;;;5.14;62.47;96734.88;5008787;28;20446;-67
2023/02/02 00:34:04;;;;;;;7.00;3.27;;;;;;;5.07;62.88;96728.91;5009108;28;20415;-66
2023/02/02 00:36:30;;;;;;;12.37;4.17;;;;;;;5.02;63.07;96726.38;5008944;28;20169;-67
2023/02/02 00:38:55;;;;;;;22.23;4.07;;;;;;;5.08;63.42;96735.84;5008753;28;20203;-67
2023/02/02 00:41:21;;;;;;;7.07;3.30;;;;;;;5.05;63.33;96735.88;5008563;28;20192;-67
2023/02/02 00:45:14;;;;;;;7.70;3.20;;;;;;;5.09;63.81;96720.19;5008775;28;20241;-67
2023/02/02 00:46:31;;;;;;;9.47;2.70;;;;;;;5.10;63.56;96721.03;5008740;28;20180;-68
2023/02/02 00:48:57;;;;;;;11.50;3.80;;;;;;;5.12;63.03;96721.88;5008590;28;20472;-69
2023/02/02 00:51:22;;;;;;;7.30;3.10;;;;;;;5.08;63.25;96723.69;5008140;28;20191;-67
2023/02/02 00:53:48;;;;;;;4.27;3.30;;;;;;;5.12;62.92;96721.88;5008598;28;20180;-67
2023/02/02 00:56:13;;;;;;;14.33;2.90;;;;;;;5.02;63.66;96713.38;5008661;28;20599;-67
2023/02/02 00:58:38;;;;;;;5.93;3.67;;;;;;;5.03;63.23;96724.63;5008555;28;20176;-67
2023/02/02 01:01:04;;;;;;;6.27;2.87;;;;;;;4.93;64.03;96725.69;5008180;28;20184;-67
2023/02/02 01:03:29;;;;;;;7.97;3.40;;;;;;;5.03;63.57;96730.72;5008201;28;20212;-67
2023/02/02 01:05:55;;;;;;;11.30;3.57;;;;;;;5.00;63.77;96722.94;5008374;28;20251;-67
2023/02/02 01:08:20;;;;;;;7.37;3.40;;;;;;;5.01;63.64;96718.63;5008242;28;20180;-68
2023/02/02 01:10:45;;;;;;;6.57;2.93;;;;;;;5.05;63.74;96715.06;5008110;28;20334;-67
2023/02/02 01:13:11;;;;;;;6.20;2.87;;;;;;;4.97;63.91;96714.34;5008020;28;20179;-70
2023/02/02 01:15:36;;;;;;;7.90;3.00;;;;;;;5.06;63.64;96712.44;5008304;28;20191;-68
2023/02/02 01:18:02;;;;;;;7.10;3.90;;;;;;;5.09;64.13;96715.00;5008343;28;20168;-65
2023/02/02 01:20:28;;;;;;;11.00;6.27;;;;;;;5.04;63.92;96723.78;5007915;28;20161;-68
2023/02/02 01:22:53;;;;;;;6.83;2.90;;;;;;;5.12;63.88;96711.47;5016335;28;20631;-66
2023/02/02 01:25:19;;;;;;;6.87;2.87;;;;;;;5.12;64.14;96711.47;5027610;28;20946;-68
2023/02/02 01:27:44;;;;;;;5.50;2.83;;;;;;;4.94;65.41;96711.78;5027664;28;20164;-68
2023/02/02 01:30:10;;;;;;;5.17;3.00;;;;;;;5.06;65.06;96714.19;5027081;28;20736;-68
2023/02/02 01:32:36;;;;;;;6.70;3.93;;;;;;;5.04;65.37;96721.16;5027787;28;20191;-68
2023/02/02 01:35:01;;;;;;;6.07;2.80;;;;;;;4.97;65.87;96723.00;5027765;28;20468;-68
2023/02/02 01:37:26;;;;;;;7.10;3.30;;;;;;;4.86;66.11;96720.56;5027490;28;20531;-67
2023/02/02 01:39:52;;;;;;;5.83;2.90;;;;;;;4.88;66.05;96718.81;5027232;28;20176;-67
2023/02/02 01:42:22;;;;;;;4.33;2.90;;;;;;;4.88;66.37;96717.97;5027360;28;20259;-68
2023/02/02 01:45:19;;;;;;;6.40;3.00;;;;;;;4.95;66.22;96713.53;5027217;28;20592;-67
2023/02/02 01:47:50;;;;;;;8.33;3.40;;;;;;;4.99;66.06;96720.41;5027415;28;20410;-68
2023/02/02 01:50:17;;;;;;;7.83;3.20;;;;;;;5.00;66.04;96711.69;5026829;28;20457;-68
2023/02/02 01:52:45;;;;;;;4.63;2.90;;;;;;;4.94;66.04;96707.47;5027130;28;20425;-68
2023/02/02 01:55:14;;;;;;;5.40;2.77;;;;;;;5.00;65.84;96709.94;5027115;28;20868;-67
2023/02/02 01:58:03;;;;;;;5.03;3.00;;;;;;;4.93;65.99;96704.88;5027019;28;20892;-66
2023/02/02 02:00:29;;;;;;;6.20;3.50;;;;;;;4.91;66.10;96706.66;5019056;28;20419;-66
2023/02/02 02:02:59;;;;;;;6.73;3.00;;;;;;;4.82;66.06;96698.13;5027048;28;20411;-68
2023/02/02 02:05:31;;;;;;;5.90;2.57;;;;;;;4.92;65.98;96697.97;5027074;28;20178;-68
2023/02/02 02:08:06;;;;;;;5.53;2.67;;;;;;;4.85;65.72;96694.63;5027520;28;20406;-68
2023/02/02 02:10:33;;;;;;;5.87;3.17;;;;;;;4.97;66.07;96696.16;5026904;28;20453;-68
2023/02/02 02:12:59;;;;;;;6.80;2.90;;;;;;;4.92;65.37;96697.97;5027382;28;20406;-68
2023/02/02 02:18:37;;;;;;;2.53;2.33;;;;;;;4.85;66.16;96707.63;5027668;28;20607;-67
2023/02/02 02:27:19;;;;;;;6.87;2.50;;;;;;;4.81;66.80;96708.53;5007115;28;20411;-67
2023/02/02 02:30:06;;;;;;;4.40;2.50;;;;;;;4.88;66.68;96705.81;5006910;28;20508;-68
2023/02/02 02:32:52;;;;;;;3.53;2.37;;;;;;;4.87;66.56;96709.31;5006917;28;20799;-67
2023/02/02 02:35:40;;;;;;;11.80;3.17;;;;;;;4.98;66.31;96703.06;5023468;28;20415;-69
2023/02/02 02:38:18;;;;;;;8.43;2.73;;;;;;;5.00;66.56;96712.53;5026648;28;21126;-69
2023/02/02 02:40:48;;;;;;;11.33;2.97;;;;;;;4.93;66.57;96699.69;5026014;28;20977;-69
2023/02/02 02:43:26;;;;;;;4.50;2.77;;;;;;;4.99;66.56;96703.03;5026273;28;20525;-66
2023/02/02 02:45:51;;;;;;;4.37;2.60;;;;;;;5.04;65.65;96697.75;5026529;28;20460;-68
2023/02/02 02:48:17;;;;;;;7.33;3.03;;;;;;;4.95;66.90;96698.75;5026313;28;20820;-67
2023/02/02 02:50:42;;;;;;;3.70;1.80;;;;;;;4.95;66.58;96703.13;5026059;28;20203;-67
2023/02/02 02:53:15;;;;;;;9.43;3.60;;;;;;;4.81;67.27;96696.41;5026504;28;20180;-68
2023/02/02 02:55:48;;;;;;;9.43;3.63;;;;;;;4.88;67.40;96702.34;5026674;28;20178;-68
2023/02/02 02:58:34;;;;;;;3.97;2.40;;;;;;;4.99;66.76;96702.19;5026603;28;20988;-68
2023/02/02 03:01:05;;;;;;;8.20;2.60;;;;;;;4.98;66.64;96703.91;5026036;28;20422;-68
2023/02/02 03:03:51;;;;;;;4.97;2.70;;;;;;;4.96;66.49;96704.81;5026277;28;20556;-68
2023/02/02 03:06:32;;;;;;;4.70;2.87;;;;;;;4.87;67.15;96708.47;5026023;28;20966;-68
2023/02/02 03:09:02;;;;;;;9.50;2.73;;;;;;;4.91;67.21;96707.50;5026588;28;20830;-68
2023/02/02 03:11:27;;;;;;;9.83;3.67;;;;;;;4.93;67.03;96716.13;5026961;28;20438;-68
2023/02/02 03:13:54;;;;;;;12.93;3.20;;;;;;;4.92;66.70;96705.78;5024935;28;20470;-67
2023/02/02 03:16:19;;;;;;;8.63;4.60;;;;;;;4.85;67.40;96705.88;5026071;28;20179;-67
2023/02/02 03:18:45;;;;;;;3.87;2.43;;;;;;;4.89;67.18;96701.50;5026155;28;20421;-67
2023/02/02 03:21:11;;;;;;;9.93;2.97;;;;;;;4.97;66.48;96707.41;5025815;28;20179;-68
2023/02/02 03:23:37;;;;;;;5.73;3.13;;;;;;;4.96;66.80;96712.63;5025963;28;20536;-68
2023/02/02 03:26:03;;;;;;;10.70;3.10;;;;;;;4.91;67.00;96711.84;5026105;28;20177;-68
2023/02/02 03:28:29;;;;;;;5.87;3.37;;;;;;;4.99;66.39;96716.03;5026039;28;20903;-68
2023/02/02 03:30:57;;;;;;;10.00;3.57;;;;;;;4.91;66.81;96717.03;5025583;28;20215;-69
2023/02/02 03:33:23;;;;;;;5.93;2.80;;;;;;;5.02;66.40;96717.72;5025932;28;20556;-68
2023/02/02 03:35:48;;;;;;;11.03;3.87;;;;;;;5.09;66.32;96714.16;5025491;28;20422;-68
2023/02/02 03:38:14;;;;;;;14.43;4.27;;;;;;;4.98;66.82;96716.06;5025887;28;20526;-68
2023/02/02 03:40:39;;;;;;;8.07;3.03;;;;;;;4.92;66.47;96726.59;5025294;28;20546;-69
2023/02/02 03:43:05;;;;;;;7.10;2.70;;;;;;;4.84;67.09;96719.78;5025722;28;20178;-67
2023/02/02 03:45:34;;;;;;;6.20;3.43;;;;;;;5.07;66.11;96710.72;5025243;28;20187;-68
2023/02/02 03:47:59;;;;;;;8.60;3.00;;;;;;;5.02;65.89;96709.94;5025607;28;20183;-67
2023/02/02 03:50:25;;;;;;;11.67;4.60;;;;;;;5.09;65.34;96714.16;5025169;28;20652;-67
2023/02/02 03:52:50;;;;;;;7.20;3.50;;;;;;;5.10;65.78;96713.25;5025555;28;20555;-68
2023/02/02 03:55:16;;;;;;;10.50;3.40;;;;;;;5.03;65.72;96716.84;5025702;28;20164;-67
2023/02/02 03:57:41;;;;;;;6.73;3.17;;;;;;;5.07;65.82;96716.75;5025630;28;20171;-68
2023/02/02 04:00:07;;;;;;;8.23;3.73;;;;;;;5.04;65.15;96715.97;5025374;28;20163;-68
2023/02/02 04:02:33;;;;;;;7.87;4.00;;;;;;;5.11;65.30;96714.97;5025585;28;20187;-67
2023/02/02 04:04:58;;;;;;;7.07;3.17;;;;;;;4.92;65.90;96710.97;5025782;28;20420;-68
2023/02/02 04:07:24;;;;;;;6.50;3.20;;;;;;;5.02;65.64;96718.59;5025446;28;20176;-68
2023/02/02 04:09:49;;;;;;;5.53;3.07;;;;;;;5.03;65.70;96719.44;5025345;28;20207;-67
2023/02/02 04:12:14;;;;;;;6.67;3.30;;;;;;;4.95;65.90;96714.38;5025398;28;20218;-67
2023/02/02 04:14:40;;;;;;;9.47;3.40;;;;;;;5.12;65.69;96713.22;5025520;28;20176;-67
2023/02/02 04:17:05;;;;;;;8.83;2.93;;;;;;;5.08;65.75;96709.84;5025484;28;20176;-69
2023/02/02 04:19:31;;;;;;;5.70;3.30;;;;;;;5.02;65.56;96717.72;5025400;28;20856;-67
2023/02/02 04:21:56;;;;;;;9.63;3.30;;;;;;;4.99;65.86;96716.03;5025297;28;20192;-67
2023/02/02 04:24:22;;;;;;;10.43;4.23;;;;;;;4.97;66.49;96719.56;5005988;28;20176;-68
2023/02/02 04:26:47;;;;;;;4.70;2.60;;;;;;;5.03;65.57;96725.53;5005716;28;20172;-67
2023/02/02 04:29:13;;;;;;;9.60;3.17;;;;;;;5.06;66.10;96722.00;5005313;28;21145;-67
2023/02/02 04:31:38;;;;;;;5.23;2.87;;;;;;;5.05;65.95;96728.06;5005520;28;20218;-67
2023/02/02 04:34:04;;;;;;;5.53;3.10;;;;;;;5.09;65.46;96729.75;5006041;28;20197;-67
2023/02/02 04:36:29;;;;;;;8.00;3.37;;;;;;;5.10;65.88;96734.06;5006070;28;20172;-67
2023/02/02 04:38:55;;;;;;;4.90;3.77;;;;;;;5.17;65.44;96727.84;5005506;28;20179;-68
2023/02/02 04:41:21;;;;;;;10.97;2.80;;;;;;;5.13;65.56;96736.63;5005442;28;20181;-68
2023/02/02 04:43:47;;;;;;;4.73;2.70;;;;;;;5.09;65.18;96727.16;5005524;28;20184;-69
2023/02/02 04:46:13;;;;;;;7.47;3.20;;;;;;;5.10;65.35;96723.66;5005569;28;20935;-69
2023/02/02 04:48:40;;;;;;;10.80;4.43;;;;;;;5.09;65.17;96719.34;5009011;28;20378;-68
2023/02/02 04:51:08;;;;;;;22.80;3.70;;;;;;;5.09;65.42;96729.75;5008633;28;20504;-68
2023/02/02 04:53:34;;;;;;;5.77;3.33;;;;;;;5.05;65.70;96731.53;5008979;28;21033;-67
2023/02/02 04:56:08;;;;;;;14.20;3.60;;;;;;;5.15;65.86;96745.28;5008885;28;20411;-69
2023/02/02 04:58:34;;;;;;;9.23;3.87;;;;;;;5.19;65.49;96739.09;5008768;28;20182;-68
2023/02/02 05:00:59;;;;;;;10.63;3.73;;;;;;;5.16;65.50;96744.38;5008220;28;20431;-68
2023/02/02 05:03:25;;;;;;;7.20;2.90;;;;;;;5.12;65.67;96742.69;5008915;28;20214;-68
2023/02/02 05:05:50;;;;;;;7.63;2.90;;;;;;;5.11;65.43;96746.19;5008511;28;20180;-68
2023/02/02 05:08:15;;;;;;;5.33;2.70;;;;;;;5.27;64.59;96745.06;5008809;28;20164;-68
2023/02/02 05:10:41;;;;;;;4.77;2.40;;;;;;;5.27;64.90;96752.00;5008528;28;21056;-67
2023/02/02 05:13:08;;;;;;;6.73;3.10;;;;;;;5.38;64.93;96744.00;5008570;28;20712;-69
2023/02/02 05:15:33;;;;;;;5.83;3.17;;;;;;;5.33;64.52;96741.47;5008449;28;20179;-68
2023/02/02 05:17:59;;;;;;;8.10;3.00;;;;;;;5.41;64.54;96731.81;5008473;28;20415;-68
2023/02/02 05:20:24;;;;;;;5.63;2.47;;;;;;;5.44;64.13;96736.94;5008017;28;20247;-68
2023/02/02 05:22:50;;;;;;;6.13;2.80;;;;;;;5.43;64.74;96737.84;5016026;28;20191;-68
2023/02/02 05:25:16;;;;;;;9.30;3.23;;;;;;;5.39;64.17;96743.97;5028413;28;20251;-68
2023/02/02 05:27:43;;;;;;;4.63;2.80;;;;;;;5.33;64.46;96741.47;5027702;28;20198;-68
2023/02/02 05:30:12;;;;;;;6.43;2.77;;;;;;;5.22;64.97;96740.78;5015028;28;20919;-68
2023/02/02 05:32:38;;;;;;;5.50;2.77;;;;;;;5.23;65.22;96742.53;5006581;28;20447;-67
2023/02/02 05:35:05;;;;;;;5.73;2.60;;;;;;;5.30;65.12;96739.78;5007406;28;20841;-67
2023/02/02 05:37:30;;;;;;;7.40;3.00;;;;;;;5.29;65.28;96753.69;5008033;28;20423;-67
2023/02/02 05:39:55;;;;;;;7.97;2.80;;;;;;;5.33;65.05;96756.22;5008067;28;20407;-67
2023/02/02 05:42:21;;;;;;;3.57;2.00;;;;;;;5.32;65.34;96752.78;5008032;28;20204;-67
2023/02/02 05:44:46;;;;;;;6.93;2.33;;;;;;;5.41;64.59;96755.22;5007899;28;20287;-67
2023/02/02 05:47:12;;;;;;;4.10;2.00;;;;;;;5.40;64.82;96752.63;5008062;28;20184;-68
2023/02/02 05:49:37;;;;;;;4.63;1.73;;;;;;;5.46;64.22;96750.78;5006150;28;20208;-68
2023/02/02 05:52:03;;;;;;;3.43;1.90;;;;;;;5.55;63.91;96761.91;5007618;28;20192;-67
2023/02/02 05:54:29;;;;;;;3.13;1.70;;;;;;;5.49;64.54;96753.31;5007877;28;20177;-67
2023/02/02 05:56:55;;;;;;;3.63;1.97;;;;;;;5.56;63.81;96759.28;5007614;28;20407;-67
2023/02/02 05:59:22;;;;;;;4.03;1.60;;;;;;;5.59;63.62;96756.63;5007727;28;20646;-67
2023/02/02 06:01:47;;;;;;;4.10;2.43;;;;;;;5.61;64.23;96765.25;5013845;28;20461;-68
2023/02/02 06:04:14;;;;;;;2.60;1.83;;;;;;;5.54;64.16;96763.66;5019382;28;20980;-68
2023/02/02 06:06:40;;;;;;;4.23;2.20;;;;;;;5.54;63.86;96765.41;5023042;28;20274;-68
2023/02/02 06:09:06;;;;;;;4.13;2.00;;;;;;;5.57;64.22;96773.16;5014489;28;20457;-68
2023/02/02 06:11:32;;;;;;;7.10;2.33;;;;;;;5.62;64.36;96774.81;5019428;28;20571;-68
2023/02/02 06:13:58;;;;;;;2.50;1.67;;;;;;;5.60;63.77;96770.47;5019047;28;20438;-68
2023/02/02 06:16:24;;;;;;;6.30;1.90;;;;;;;5.68;63.83;96779.03;5019937;28;20414;-68
2023/02/02 06:18:49;;;;;;;5.13;2.33;;;;;;;5.69;63.35;96778.13;5022072;28;20651;-68
2023/02/02 06:21:15;;;;;;;2.30;1.67;;;;;;;5.67;63.82;96793.78;5010755;28;20641;-68
2023/02/02 06:23:44;;;;;;;3.20;2.33;;;;;;;5.69;63.72;96781.63;5020306;28;20179;-68
2023/02/02 06:26:13;;;;;;;6.90;2.00;;;;;;;5.66;63.93;96789.47;5017762;28;20749;-68
2023/02/02 06:28:39;;;;;;;7.40;2.07;;;;;;;5.58;64.13;96786.16;5022555;28;21362;-68
2023/02/02 06:31:08;;;;;;;4.93;2.40;;;;;;;5.57;64.07;96788.78;5013356;28;20545;-68
2023/02/02 06:33:34;;;;;;;6.83;2.47;;;;;;;5.55;63.96;96791.41;5023833;28;20628;-68
2023/02/02 06:36:01;;;;;;;3.23;2.00;;;;;;;5.66;63.72;96789.47;5011520;28;20424;-69
2023/02/02 06:38:27;;;;;;;12.53;2.17;;;;;;;5.60;63.88;96800.00;5018933;28;20195;-68
2023/02/02 06:40:52;;;;;;;3.60;2.13;;;;;;;5.48;64.11;96789.78;5009148;28;20896;-70
2023/02/02 06:43:18;;;;;;;11.73;2.67;;;;;;;5.57;64.00;96797.44;5014514;28;20187;-70
2023/02/02 06:45:43;;;;;;;6.43;2.37;;;;;;;5.55;63.84;96799.22;5015874;28;20180;-69
2023/02/02 06:48:09;;;;;;;6.20;2.70;;;;;;;5.54;63.95;96797.50;5015651;28;20326;-69
2023/02/02 06:50:37;;;;;;;5.20;2.23;;;;;;;5.51;63.88;96792.34;5016728;28;20196;-69
2023/02/02 06:53:04;;;;;;;3.83;2.40;;;;;;;5.47;64.04;96793.28;5023696;28;20414;-69
2023/02/02 06:55:29;;;;;;;6.13;2.20;;;;;;;5.52;63.99;96802.72;5017722;28;20430;-69
2023/02/02 06:57:59;;;;;;;10.67;3.60;;;;;;;5.54;64.24;96807.06;5020725;28;20426;-69
2023/02/02 07:00:26;;;;;;;19.63;5.67;;;;;;;5.54;64.31;96807.91;5017798;28;20209;-69
2023/02/02 07:02:52;;;;;;;15.60;3.97;;;;;;;5.56;64.20;96810.50;5019186;28;20414;-69
2023/02/02 07:05:22;;;;;;;9.00;3.80;;;;;;;5.53;64.54;96814.00;5015388;28;20422;-70
2023/02/02 07:07:49;;;;;;;7.77;2.53;;;;;;;5.50;64.33;96806.22;5003792;28;20608;-69
2023/02/02 07:10:15;;;;;;;7.67;2.43;;;;;;;5.49;64.43;96809.75;5002794;28;20511;-68
2023/02/02 07:12:40;;;;;;;3.10;2.10;;;;;;;5.53;65.32;96811.41;5003607;28;20443;-68
2023/02/02 07:15:06;;;;;;;10.47;4.73;;;;;;;5.49;65.10;96817.53;5003504;28;20225;-67
2023/02/02 07:17:31;;;;;;;5.03;3.13;;;;;;;5.57;65.66;96825.22;5003444;28;20179;-67
2023/02/02 07:19:57;;;;;;;2.80;1.93;;;;;;;5.63;65.34;96825.13;5004444;28;20407;-68
2023/02/02 07:22:22;;;;;;;12.00;3.10;;;;;;;5.50;65.71;96827.06;5003472;28;20578;-67
2023/02/02 07:24:48;;;;;;;5.20;2.70;;;;;;;5.43;66.63;96821.13;5003190;28;20184;-69
2023/02/02 07:27:13;;;;;;;5.93;2.20;;;;;;;5.48;66.50;96821.91;5013072;28;20183;-68
2023/02/02 07:29:39;;;;;;;5.70;2.53;;;;;;;5.46;66.71;96815.84;5022785;28;20559;-68
2023/02/02 07:32:04;;;;;;;3.33;2.37;;;;;;;5.47;66.67;96827.13;5023706;28;20241;-68
2023/02/02 07:34:30;;;;;;;5.27;2.10;;;;;;;5.40;67.15;96830.72;5022865;28;20191;-68
2023/02/02 07:36:56;;;;;;;3.77;3.10;;;;;;;5.32;67.40;96825.63;5025474;28;20202;-68
2023/02/02 07:39:21;;;;;;;3.13;2.70;;;;;;;5.42;67.28;96828.94;5025267;28;20238;-68
2023/02/02 07:41:47;;;;;;;6.93;3.20;;;;;;;5.42;66.99;96828.94;5025473;28;20525;-68
2023/02/02 07:44:16;;;;;;;9.60;2.83;;;;;;;5.49;67.03;96831.41;5025357;28;20190;-68
2023/02/02 07:46:46;;;;;;;6.10;2.70;;;;;;;5.44;67.15;96845.41;5025460;28;20171;-68
2023/02/02 07:49:16;;;;;;;5.70;3.30;;;;;;;5.38;67.64;96843.75;5025420;28;20406;-68
2023/02/02 07:51:42;;;;;;;6.50;2.80;;;;;;;5.48;67.43;96858.34;5025498;28;20752;-68
2023/02/02 07:54:08;;;;;;;5.03;2.57;;;;;;;5.47;67.69;96847.94;5026011;28;20493;-68
2023/02/02 07:56:33;;;;;;;12.60;3.20;;;;;;;5.49;66.96;96848.78;5026089;28;20493;-68
2023/02/02 07:58:59;;;;;;;5.80;2.50;;;;;;;5.42;67.56;96855.81;5025677;28;20198;-68
2023/02/02 08:01:26;;;;;;;7.10;3.77;;;;;;;5.40;67.82;96856.75;5025288;28;20219;-67
2023/02/02 08:03:52;;;;;;;6.13;2.50;;;;;;;5.47;67.46;96860.97;5025375;28;20544;-68
2023/02/02 08:06:21;;;;;;;3.00;2.60;;;;;;;5.54;67.26;96866.94;5025523;28;20418;-68
2023/02/02 08:08:47;;;;;;;4.70;3.17;;;;;;;5.53;66.86;96866.06;5025231;28;20510;-67
2023/02/02 08:11:15;;;;;;;5.57;2.67;;;;;;;5.59;66.56;96868.56;5024841;28;20555;-69
2023/02/02 08:13:42;;;;;;;4.63;2.93;;;;;;;5.56;66.49;96866.00;5024954;28;20413;-69
2023/02/02 08:16:08;;;;;;;4.57;2.67;;;;;;;5.65;66.70;96872.81;5024943;28;20425;-68
2023/02/02 08:18:34;;;;;;;26.83;3.87;;;;;;;5.71;66.49;96862.28;5024659;28;20402;-68
2023/02/02 08:21:01;;;;;;;8.73;2.67;;;;;;;5.73;66.31;96850.09;5024422;28;20458;-68
2023/02/02 08:23:27;;;;;;;7.93;3.10;;;;;;;5.69;66.81;96859.72;5028225;28;20406;-67
2023/02/02 08:25:53;;;;;;;40.77;8.47;;;;;;;5.62;67.37;96852.91;5028691;28;20491;-69
2023/02/02 08:28:18;;;;;;;10.77;2.80;;;;;;;5.68;66.69;96850.19;5028570;28;20276;-68
2023/02/02 08:30:44;;;;;;;17.77;4.13;;;;;;;5.69;66.43;96844.09;5028090;28;20470;-67
2023/02/02 08:33:10;;;;;;;19.33;4.50;;;;;;;5.69;67.09;96844.09;5028416;28;20233;-68
2023/02/02 08:35:42;;;;;;;15.37;4.33;;;;;;;5.72;66.92;96843.19;5028214;28;20171;-68
2023/02/02 08:38:08;;;;;;;13.60;3.80;;;;;;;5.76;66.56;96846.59;5028697;28;20406;-68
2023/02/02 08:40:34;;;;;;;5.33;2.57;;;;;;;5.75;66.71;96850.09;5027946;28;20418;-67
2023/02/02 08:42:59;;;;;;;9.40;2.97;;;;;;;5.77;66.67;96858.72;5028229;28;20402;-68
2023/02/02 08:45:25;;;;;;;5.90;2.50;;;;;;;5.76;66.88;96864.81;5028032;28;20661;-68
2023/02/02 08:47:50;;;;;;;8.50;2.57;;;;;;;5.74;66.74;96870.06;5028129;28;20171;-68
2023/02/02 08:50:17;;;;;;;4.40;2.23;;;;;;;5.76;66.89;96880.44;5027810;28;20221;-68
2023/02/02 08:52:43;;;;;;;7.07;2.33;;;;;;;5.74;67.26;96877.88;5027966;28;20222;-68
2023/02/02 08:55:08;;;;;;;6.80;2.60;;;;;;;5.78;66.88;96891.69;5028096;28;20433;-68
2023/02/02 08:57:34;;;;;;;3.97;2.60;;;;;;;5.72;67.54;96892.66;5028490;28;20633;-68
2023/02/02 08:59:59;;;;;;;4.10;2.53;;;;;;;5.68;67.50;96898.81;5027945;28;20171;-67
2023/02/02 09:02:25;;;;;;;4.17;2.20;;;;;;;5.71;67.52;96894.38;5027771;28;20187;-67
2023/02/02 09:04:50;;;;;;;7.33;2.67;;;;;;;5.80;67.20;96893.38;5027729;28;20171;-68
2023/02/02 09:07:16;;;;;;;5.20;2.43;;;;;;;5.78;66.69;96902.09;5028008;28;20233;-68
2023/02/02 09:09:41;;;;;;;8.73;2.33;;;;;;;5.93;66.64;96897.50;5027245;28;20306;-68
2023/02/02 09:12:07;;;;;;;15.17;3.47;;;;;;;5.92;67.13;96900.13;5025847;28;20206;-68
2023/02/02 09:14:32;;;;;;;9.87;3.30;;;;;;;6.04;66.95;96902.53;5027634;28;20182;-68
2023/02/02 09:16:57;;;;;;;3.70;2.03;;;;;;;6.03;66.67;96908.66;5027389;28;20175;-68
2023/02/02 09:19:23;;;;;;;3.73;2.13;;;;;;;6.04;66.06;96901.69;5027619;28;20179;-69
2023/02/02 09:21:49;;;;;;;3.73;2.17;;;;;;;6.09;65.98;96897.25;5025814;28;20200;-69
2023/02/02 09:24:16;;;;;;;6.80;2.57;;;;;;;6.07;66.09;96892.09;5008008;28;20207;-69
2023/02/02 09:26:43;;;;;;;7.20;3.07;;;;;;;6.04;66.01;96902.53;5007443;28;20419;-69
2023/02/02 09:29:14;;;;;;;12.53;3.50;;;;;;;6.06;65.74;96890.34;5007404;28;20509;-67
2023/02/02 09:31:40;;;;;;;13.67;3.23;;;;;;;6.02;66.64;96901.69;5007153;28;20431;-68
2023/02/02 09:34:08;;;;;;;12.90;3.47;;;;;;;6.00;66.40;96906.09;5007256;28;20422;-70
2023/02/02 09:36:34;;;;;;;6.10;3.30;;;;;;;5.96;66.22;96896.63;5007751;28;20172;-68
2023/02/02 09:39:00;;;;;;;3.70;2.70;;;;;;;5.97;66.47;96907.88;5007426;28;20429;-68
2023/02/02 09:41:38;;;;;;;6.50;3.13;;;;;;;5.96;66.45;96908.78;5006861;28;20185;-70
2023/02/02 09:44:25;;;;;;;9.00;3.10;;;;;;;5.99;66.98;96908.72;5007176;28;20485;-69
2023/02/02 09:46:50;;;;;;;5.80;3.07;;;;;;;5.88;67.13;96906.25;5007127;28;20442;-68
2023/02/02 09:49:25;;;;;;;13.07;4.20;;;;;;;5.94;66.84;96908.81;5007189;28;20525;-70
2023/02/02 09:51:58;;;;;;;5.30;2.70;;;;;;;5.96;66.96;96914.00;5007369;28;20954;-69
2023/02/02 09:54:32;;;;;;;4.33;2.70;;;;;;;6.01;67.16;96912.16;5006983;28;20483;-68
2023/02/02 09:57:01;;;;;;;7.60;3.97;;;;;;;6.02;66.58;96916.47;5007050;28;20419;-69
2023/02/02 09:59:33;;;;;;;5.93;3.03;;;;;;;5.97;67.11;96908.75;5007246;28;20488;-69
2023/02/02 10:02:05;;;;;;;5.57;2.80;;;;;;;5.96;67.50;96909.66;5008269;28;20506;-70
2023/02/02 10:04:35;;;;;;;5.13;2.87;;;;;;;6.02;67.07;96919.09;5008044;28;20812;-68
2023/02/02 10:07:33;;;;;;;15.10;5.00;;;;;;;5.93;67.23;96918.34;5007931;28;20435;-70
2023/02/02 10:10:12;;;;;;;10.80;3.40;;;;;;;5.87;67.79;96935.81;5006788;28;20467;-69
2023/02/02 10:13:09;;;;;;;16.13;4.03;;;;;;;5.91;68.29;96940.94;5007443;28;20510;-68
2023/02/02 10:15:58;;;;;;;16.67;5.77;;;;;;;5.98;67.89;96944.34;5006387;28;20447;-69
2023/02/02 10:18:49;;;;;;;3.90;2.60;;;;;;;5.98;67.53;96944.34;5006787;28;20403;-69
2023/02/02 10:21:32;;;;;;;7.30;2.93;;;;;;;6.00;68.70;96947.78;5006451;28;21144;-68
2023/02/02 10:23:57;;;;;;;10.57;3.13;;;;;;;6.07;68.11;96943.31;5023486;28;20423;-68
2023/02/02 10:26:41;;;;;;;7.77;2.80;;;;;;;6.10;67.85;96933.72;5026668;28;20960;-68
2023/02/02 10:29:12;;;;;;;19.47;4.83;;;;;;;6.06;68.14;96946.81;5026148;28;20271;-68
2023/02/02 10:32:13;;;;;;;9.13;2.43;;;;;;;6.15;68.40;96938.84;5025950;28;20504;-68
2023/02/02 10:34:41;;;;;;;17.97;6.50;;;;;;;6.27;67.29;96946.44;5026359;28;20492;-69
2023/02/02 10:37:31;;;;;;;31.67;5.67;;;;;;;6.27;67.37;96936.00;5026424;28;20990;-69
2023/02/02 10:40:26;;;;;;;6.77;2.87;;;;;;;6.29;66.77;96930.78;5025944;28;20391;-69
2023/02/02 10:45:43;;;;;;;3.00;2.53;;;;;;;6.25;66.86;96931.72;5025643;28;20429;-68
2023/02/02 10:48:19;;;;;;;4.93;2.27;;;;;;;6.31;66.94;96935.06;5026204;28;20425;-68
2023/02/02 10:50:49;;;;;;;3.50;2.37;;;;;;;6.31;67.04;96931.63;5025893;28;20531;-69
2023/02/02 10:53:15;;;;;;;7.23;2.77;;;;;;;6.29;66.92;96933.38;5026118;28;20468;-66
2023/02/02 10:56:01;;;;;;;6.30;4.60;;;;;;;6.30;67.00;96935.09;5025951;28;20495;-67
2023/02/02 10:58:38;;;;;;;4.40;1.60;;;;;;;6.44;66.93;96932.22;5026116;28;21168;-67
2023/02/02 11:01:06;;;;;;;3.53;2.27;;;;;;;6.40;67.59;96938.38;5025865;28;20556;-68
2023/02/02 11:03:32;;;;;;;5.70;2.43;;;;;;;6.38;68.04;96933.22;5025848;28;20456;-68
2023/02/02 11:08:55;;;;;;;8.63;2.37;;;;;;;6.47;67.68;96943.47;5026097;28;20413;-68
2023/02/02 11:11:31;;;;;;;8.70;2.43;;;;;;;6.40;67.99;96934.00;5025600;28;20461;-69
2023/02/02 11:14:02;;;;;;;8.23;3.23;;;;;;;6.41;68.51;96943.56;5025760;28;20417;-70
2023/02/02 11:16:30;;;;;;;6.70;2.27;;;;;;;6.35;68.86;96941.06;5025711;28;20414;-66
2023/02/02 11:18:56;;;;;;;15.77;3.17;;;;;;;6.39;68.73;96936.66;5025389;28;20406;-68
2023/02/02 11:21:28;;;;;;;9.33;3.90;;;;;;;6.43;69.42;96951.38;5025265;28;20559;-67
2023/02/02 11:23:56;;;;;;;7.83;2.57;;;;;;;6.40;69.10;96957.47;5025431;28;20167;-67
2023/02/02 11:26:24;;;;;;;7.37;3.30;;;;;;;6.35;69.24;96959.31;5025305;28;20414;-67
2023/02/02 11:28:52;;;;;;;7.50;3.40;;;;;;;6.36;69.59;96943.66;5025098;28;20414;-67
2023/02/02 11:31:35;;;;;;;8.63;3.00;;;;;;;6.34;69.53;96953.25;5024962;28;20966;-67
2023/02/02 11:34:22;;;;;;;9.80;3.10;;;;;;;6.33;70.34;96955.88;5025557;28;20410;-68
2023/02/02 11:37:18;;;;;;;9.93;3.17;;;;;;;6.31;69.78;96952.47;5025174;28;20481;-67
2023/02/02 11:39:44;;;;;;;4.80;3.10;;;;;;;6.29;70.81;96944.66;5025297;28;20509;-68
2023/02/02 11:42:17;;;;;;;8.43;3.33;;;;;;;6.29;70.12;96959.44;5024984;28;20590;-68
2023/02/02 11:44:47;;;;;;;12.87;4.33;;;;;;;6.32;70.77;96954.16;5024257;28;20918;-68
2023/02/02 11:47:31;;;;;;;13.17;4.47;;;;;;;6.32;70.71;96959.38;5025541;28;21162;-67
2023/02/02 11:49:59;;;;;;;8.13;3.30;;;;;;;6.25;70.91;96953.41;5025007;28;20457;-67
2023/02/02 11:52:27;;;;;;;15.93;6.43;;;;;;;6.38;70.14;96956.69;5024956;28;20803;-67
2023/02/02 11:54:56;;;;;;;11.17;3.37;;;;;;;6.28;70.92;96952.50;5025130;28;20438;-68
2023/02/02 11:57:24;;;;;;;5.40;4.00;;;;;;;6.25;70.73;96950.81;5026865;28;20406;-67
2023/02/02 12:00:04;;;;;;;9.87;4.20;;;;;;;6.24;70.47;96956.91;5029014;28;20433;-68
2023/02/02 12:02:32;;;;;;;3.83;2.63;;;;;;;6.27;70.84;96958.59;5029251;28;20437;-71